Terminal Aerodrome Forecast
Issued by NWS

Home | Current Version | Previous Version | Text Only | Print | Product List | Glossary On
Versions: 1 2 3 4 5 6 7 8 9 10 11 12 13 14 15 16 17 18
000
FTUS43 KBIS 280100 AAA
TAFJMS
TAF AMD
KJMS 280109Z 2801/2824 VRB05KT P6SM BKN150
      TEMPO 2801/2803 1/4SM FG VV002
     FM281500 33012KT P6SM BKN100
     FM282000 33021G30KT P6SM BKN015=

USA.gov is the U.S. government's official web portal to all federal, state and local government web resources and services.